Morrisburg, Canada
Current Conditions -  °F | °C
As of 7:53 PM on Monday 20 Oct 2014 (Local Time) from KMSS Reporting Station
Overcast Overcast  
Wind Chill: 41°   Ceiling: 4200
Heat Index: 44°   Visibility: 10mi
Dew Point: 44°   Wind: 6mph
Humidity: 100%   Direction: 70°ENE
Pressure: 29.92"   Gusts: NA
Location:  44.9°N, 75.18°W
Report Text: KMSS 202353Z AUTO 07005KT 10SM BKN042 OVC050 07/07 A2992 RMK AO2 RAB2257E45 SLP137 P0000 6//// T00670067 10083 20067 53002
Loading
Personal Weather Stations






























Interactive Weather Map
Tropical Storm Tracking
New forecast layout! Learn more

10-Day Weather Forecast

Advertisements
Track Severe Weather on mobile